Time;durP1;ratioP1;P1;durP2;ratioP2;P2;SDS_P1;SDS_P2;PMS_P1;PMS_P2;Temp;Humidity;BMP_temperature;BMP_pressure;BME280_temperature;BME280_humidity;BME280_pressure;Samples;Min_cycle;Max_cycle;Signal;HPM_P1;HPM_P2
2022/09/30 00:00:19;;;;;;;2.30;2.20;;;;;;;;;;5001552;28;20311;-55
2022/09/30 00:02:45;;;;;;;2.20;2.10;;;;;;;;;;5007248;28;20217;-56
2022/09/30 00:05:12;;;;;;;2.40;2.30;;;;;;;;;;4998844;28;20274;-55
2022/09/30 00:07:38;;;;;;;2.23;2.13;;;;;;;;;;5011328;28;20746;-55
2022/09/30 00:10:06;;;;;;;1.83;1.73;;;;;;;;;;5007456;28;20221;-56
2022/09/30 00:12:32;;;;;;;2.00;1.90;;;;;;;;;;5019517;28;21243;-55
2022/09/30 00:14:58;;;;;;;1.97;1.87;;;;;;;;;;5013897;28;20398;-55
2022/09/30 00:17:24;;;;;;;1.93;1.83;;;;;;;;;;5015527;28;20233;-55
2022/09/30 00:19:50;;;;;;;1.30;1.30;;;;;;;;;;5013380;28;20218;-56
2022/09/30 00:22:16;;;;;;;1.83;1.73;;;;;;;;;;5008692;28;20307;-55
2022/09/30 00:24:42;;;;;;;1.90;1.80;;;;;;;;;;4984530;28;20223;-56
2022/09/30 00:27:08;;;;;;;1.90;1.80;;;;;;;;;;5001613;28;20227;-56
2022/09/30 00:29:34;;;;;;;2.23;2.13;;;;;;;;;;5020759;28;21998;-55
2022/09/30 00:32:00;;;;;;;2.10;2.00;;;;;;;;;;5002636;28;20799;-56
2022/09/30 00:34:26;;;;;;;2.30;2.20;;;;;;;;;;5007125;28;20221;-55
2022/09/30 00:36:52;;;;;;;2.33;2.23;;;;;;;;;;5015782;28;20825;-56
2022/09/30 00:39:19;;;;;;;2.00;1.90;;;;;;;;;;5022516;28;20210;-55
2022/09/30 00:41:45;;;;;;;1.67;1.67;;;;;;;;;;5018660;28;20621;-55
2022/09/30 00:44:30;;;;;;;1.83;1.73;;;;;;;;;;5015466;28;20218;-56
2022/09/30 00:46:58;;;;;;;1.70;1.70;;;;;;;;;;4984608;28;20234;-55
2022/09/30 00:49:24;;;;;;;1.90;1.80;;;;;;;;;;5026664;28;20208;-55
2022/09/30 00:51:51;;;;;;;1.67;1.67;;;;;;;;;;5013686;28;20242;-55
2022/09/30 00:54:18;;;;;;;1.70;1.70;;;;;;;;;;5014848;28;20226;-55
2022/09/30 00:56:45;;;;;;;1.63;1.63;;;;;;;;;;5009770;28;20219;-55
2022/09/30 00:59:13;;;;;;;1.60;1.60;;;;;;;;;;5023360;28;20220;-55
2022/09/30 01:01:40;;;;;;;1.80;1.70;;;;;;;;;;5020401;28;20227;-55
2022/09/30 01:04:08;;;;;;;1.70;1.70;;;;;;;;;;5016812;28;20224;-55
2022/09/30 01:06:34;;;;;;;1.83;1.77;;;;;;;;;;5023499;28;20224;-56
2022/09/30 01:09:00;;;;;;;1.70;1.60;;;;;;;;;;5033703;28;20702;-55
2022/09/30 01:11:27;;;;;;;1.60;1.60;;;;;;;;;;5011567;28;20979;-55
2022/09/30 01:13:55;;;;;;;1.63;1.63;;;;;;;;;;5005793;28;20235;-55
2022/09/30 01:16:27;;;;;;;1.90;1.80;;;;;;;;;;5019517;28;20247;-55
2022/09/30 01:19:02;;;;;;;1.87;1.77;;;;;;;;;;5008719;28;20224;-56
2022/09/30 01:21:36;;;;;;;1.83;1.73;;;;;;;;;;5020022;28;20220;-56
2022/09/30 01:24:17;;;;;;;2.00;1.90;;;;;;;;;;5009244;28;20236;-55
2022/09/30 01:26:53;;;;;;;1.90;1.80;;;;;;;;;;5008947;28;20299;-55
2022/09/30 01:29:28;;;;;;;1.77;1.70;;;;;;;;;;5030783;28;20655;-55
2022/09/30 01:32:09;;;;;;;1.90;1.80;;;;;;;;;;5013329;28;20251;-54
2022/09/30 01:34:44;;;;;;;1.90;1.80;;;;;;;;;;5029459;28;20227;-56
2022/09/30 01:37:22;;;;;;;1.83;1.73;;;;;;;;;;5031254;28;20236;-55
2022/09/30 01:40:21;;;;;;;1.77;1.70;;;;;;;;;;5017897;28;20253;-55
2022/09/30 01:42:54;;;;;;;1.87;1.77;;;;;;;;;;5000112;28;20235;-55
2022/09/30 01:45:29;;;;;;;2.07;1.97;;;;;;;;;;5010953;28;20231;-55
2022/09/30 01:48:03;;;;;;;1.80;1.70;;;;;;;;;;4999645;28;20227;-55
2022/09/30 01:50:47;;;;;;;1.73;1.70;;;;;;;;;;5009182;28;20331;-55
2022/09/30 01:53:22;;;;;;;1.50;1.50;;;;;;;;;;5009634;28;20229;-55
2022/09/30 01:55:53;;;;;;;1.93;1.83;;;;;;;;;;5011418;28;20239;-55
2022/09/30 01:58:19;;;;;;;2.00;1.90;;;;;;;;;;5020814;28;20232;-55
2022/09/30 02:00:48;;;;;;;1.73;1.70;;;;;;;;;;5015881;28;20697;-54
2022/09/30 02:03:18;;;;;;;1.90;1.80;;;;;;;;;;4996309;28;20234;-54
2022/09/30 02:05:46;;;;;;;1.50;1.50;;;;;;;;;;5018007;28;20647;-54
2022/09/30 02:08:15;;;;;;;1.80;1.70;;;;;;;;;;4998509;28;20221;-54
2022/09/30 02:11:01;;;;;;;1.77;1.73;;;;;;;;;;5003412;28;20774;-53
2022/09/30 02:13:33;;;;;;;1.97;1.87;;;;;;;;;;5010113;28;20767;-54
2022/09/30 02:16:01;;;;;;;2.20;2.10;;;;;;;;;;5022149;28;20743;-55
2022/09/30 02:18:29;;;;;;;2.00;1.90;;;;;;;;;;5010185;28;20235;-53
2022/09/30 02:20:56;;;;;;;2.10;2.00;;;;;;;;;;4996319;28;20228;-55
2022/09/30 02:23:24;;;;;;;2.40;2.30;;;;;;;;;;4979529;28;21269;-54
2022/09/30 02:25:56;;;;;;;2.40;2.30;;;;;;;;;;5011160;28;20228;-53
2022/09/30 02:28:25;;;;;;;2.70;2.60;;;;;;;;;;4996556;28;20220;-55
2022/09/30 02:30:51;;;;;;;2.30;2.20;;;;;;;;;;5011830;28;20230;-55
2022/09/30 02:33:24;;;;;;;2.00;1.90;;;;;;;;;;4997901;28;20315;-54
2022/09/30 02:35:52;;;;;;;1.70;1.70;;;;;;;;;;4995128;28;20321;-54
2022/09/30 02:38:18;;;;;;;2.20;2.10;;;;;;;;;;5032666;28;20251;-55
2022/09/30 02:40:47;;;;;;;2.10;2.00;;;;;;;;;;5009731;28;20594;-54
2022/09/30 02:43:13;;;;;;;2.20;2.10;;;;;;;;;;4998378;28;20239;-53
2022/09/30 02:45:50;;;;;;;1.90;1.80;;;;;;;;;;5009541;28;20232;-55
2022/09/30 02:48:15;;;;;;;2.00;1.90;;;;;;;;;;5016515;28;20247;-54
2022/09/30 02:50:55;;;;;;;2.30;2.20;;;;;;;;;;5001027;28;20224;-54
2022/09/30 02:53:31;;;;;;;2.00;1.90;;;;;;;;;;5008679;28;20233;-55
2022/09/30 02:55:59;;;;;;;1.63;1.63;;;;;;;;;;4999314;28;20321;-53
2022/09/30 02:58:26;;;;;;;1.90;1.80;;;;;;;;;;5010381;28;20223;-54
2022/09/30 03:00:52;;;;;;;1.50;1.50;;;;;;;;;;5008228;28;20228;-55
2022/09/30 03:03:19;;;;;;;1.67;1.67;;;;;;;;;;4987233;28;20244;-54
2022/09/30 03:05:45;;;;;;;1.50;1.50;;;;;;;;;;5019535;28;20231;-54
2022/09/30 03:08:11;;;;;;;1.47;1.47;;;;;;;;;;5021562;28;20682;-54
2022/09/30 03:10:37;;;;;;;1.50;1.50;;;;;;;;;;5013703;28;20315;-54
2022/09/30 03:13:12;;;;;;;1.30;1.30;;;;;;;;;;5010166;28;20235;-53
2022/09/30 03:15:39;;;;;;;1.50;1.50;;;;;;;;;;5014631;28;20764;-54
2022/09/30 03:18:17;;;;;;;1.40;1.40;;;;;;;;;;5003932;28;20231;-56
2022/09/30 03:20:43;;;;;;;1.30;1.30;;;;;;;;;;5011161;28;20649;-53
2022/09/30 03:23:28;;;;;;;1.40;1.40;;;;;;;;;;4994536;28;20238;-54
2022/09/30 03:26:00;;;;;;;1.53;1.53;;;;;;;;;;4976926;28;20574;-54
2022/09/30 03:28:28;;;;;;;1.30;1.30;;;;;;;;;;4998626;28;20215;-55
2022/09/30 03:30:54;;;;;;;1.50;1.50;;;;;;;;;;5013162;28;20283;-54
2022/09/30 03:33:20;;;;;;;1.40;1.40;;;;;;;;;;4999484;28;20251;-54
2022/09/30 03:36:04;;;;;;;1.20;1.20;;;;;;;;;;5003439;28;20314;-54
2022/09/30 03:38:44;;;;;;;1.20;1.20;;;;;;;;;;5030974;28;20241;-54
2022/09/30 03:41:10;;;;;;;1.30;1.30;;;;;;;;;;5013021;28;20247;-54
2022/09/30 03:43:42;;;;;;;1.40;1.40;;;;;;;;;;5001589;28;21601;-54
2022/09/30 03:46:30;;;;;;;1.10;1.10;;;;;;;;;;4997150;28;20236;-54
2022/09/30 03:48:58;;;;;;;1.70;1.70;;;;;;;;;;4989573;28;20220;-53
2022/09/30 03:51:24;;;;;;;1.27;1.27;;;;;;;;;;4991572;28;20384;-53
2022/09/30 03:53:52;;;;;;;1.40;1.40;;;;;;;;;;4987851;28;20818;-55
2022/09/30 03:56:23;;;;;;;1.40;1.40;;;;;;;;;;5020281;28;20301;-54
2022/09/30 03:58:49;;;;;;;1.43;1.43;;;;;;;;;;4981576;28;20252;-54
2022/09/30 04:01:20;;;;;;;1.60;1.60;;;;;;;;;;5004830;28;20219;-54
2022/09/30 04:03:46;;;;;;;1.60;1.60;;;;;;;;;;5024887;28;20291;-54
2022/09/30 04:06:12;;;;;;;1.80;1.70;;;;;;;;;;5028695;28;20810;-54
2022/09/30 04:08:38;;;;;;;1.70;1.70;;;;;;;;;;5010871;28;20311;-54
2022/09/30 04:11:04;;;;;;;1.70;1.67;;;;;;;;;;5012216;28;20551;-54
2022/09/30 04:13:30;;;;;;;1.67;1.67;;;;;;;;;;5003278;28;20221;-55
2022/09/30 04:15:57;;;;;;;1.70;1.70;;;;;;;;;;5003388;28;21000;-55
2022/09/30 04:18:23;;;;;;;1.90;1.80;;;;;;;;;;4994316;28;21821;-54
2022/09/30 04:20:49;;;;;;;2.10;2.00;;;;;;;;;;4990437;28;20695;-54
2022/09/30 04:23:15;;;;;;;2.00;1.90;;;;;;;;;;5012170;28;20642;-55
2022/09/30 04:25:41;;;;;;;1.70;1.70;;;;;;;;;;5018063;28;20254;-55
2022/09/30 04:28:07;;;;;;;1.63;1.63;;;;;;;;;;5003783;28;20360;-55
2022/09/30 04:30:33;;;;;;;1.60;1.60;;;;;;;;;;5015810;28;20228;-54
2022/09/30 04:32:59;;;;;;;1.60;1.60;;;;;;;;;;5017279;28;20238;-54
2022/09/30 04:35:28;;;;;;;1.60;1.60;;;;;;;;;;5031302;28;20247;-55
2022/09/30 04:37:54;;;;;;;1.60;1.60;;;;;;;;;;5025749;28;20812;-53
2022/09/30 04:40:20;;;;;;;1.70;1.70;;;;;;;;;;5019343;28;20219;-53
2022/09/30 04:42:46;;;;;;;1.60;1.60;;;;;;;;;;5030928;28;20242;-54
2022/09/30 04:45:12;;;;;;;1.50;1.50;;;;;;;;;;5022702;28;20223;-53
2022/09/30 04:47:38;;;;;;;1.50;1.50;;;;;;;;;;5026650;28;20226;-55
2022/09/30 04:50:05;;;;;;;1.87;1.77;;;;;;;;;;5031552;28;20647;-54
2022/09/30 04:52:31;;;;;;;1.80;1.70;;;;;;;;;;5011804;28;20224;-55
2022/09/30 04:54:57;;;;;;;1.50;1.50;;;;;;;;;;5022314;28;20299;-53
2022/09/30 04:57:24;;;;;;;1.30;1.30;;;;;;;;;;5020529;28;20281;-54
2022/09/30 04:59:50;;;;;;;1.40;1.40;;;;;;;;;;5016198;28;20939;-54
2022/09/30 05:02:16;;;;;;;1.40;1.40;;;;;;;;;;5018812;28;20354;-53
2022/09/30 05:04:42;;;;;;;1.60;1.60;;;;;;;;;;5013353;28;20276;-55
2022/09/30 05:07:08;;;;;;;1.50;1.50;;;;;;;;;;5036734;28;20632;-53
2022/09/30 05:09:34;;;;;;;1.30;1.30;;;;;;;;;;5032291;28;20937;-54
2022/09/30 05:12:02;;;;;;;1.30;1.30;;;;;;;;;;5015915;28;20225;-53
2022/09/30 05:14:28;;;;;;;1.40;1.40;;;;;;;;;;5025883;28;20235;-53
2022/09/30 05:16:54;;;;;;;1.30;1.30;;;;;;;;;;4998448;28;20221;-53
2022/09/30 05:19:20;;;;;;;1.30;1.30;;;;;;;;;;5014885;28;20225;-54
2022/09/30 05:21:46;;;;;;;1.57;1.57;;;;;;;;;;5025161;28;20223;-53
2022/09/30 05:24:12;;;;;;;1.40;1.40;;;;;;;;;;5010294;28;20232;-54
2022/09/30 05:26:39;;;;;;;1.50;1.50;;;;;;;;;;5032348;28;21228;-54
2022/09/30 05:29:05;;;;;;;1.27;1.27;;;;;;;;;;5013979;28;20996;-54
2022/09/30 05:31:30;;;;;;;1.30;1.30;;;;;;;;;;5029972;28;20223;-53
2022/09/30 05:33:56;;;;;;;1.43;1.43;;;;;;;;;;5028986;28;20235;-53
2022/09/30 05:36:22;;;;;;;1.20;1.20;;;;;;;;;;5019366;28;20220;-53
2022/09/30 05:38:52;;;;;;;1.00;1.00;;;;;;;;;;5037581;28;20259;-54
2022/09/30 05:41:21;;;;;;;1.20;1.20;;;;;;;;;;5034027;28;20254;-55
2022/09/30 05:43:47;;;;;;;1.10;1.10;;;;;;;;;;5018876;28;20746;-53
2022/09/30 05:46:16;;;;;;;1.10;1.10;;;;;;;;;;5025105;28;20218;-54
2022/09/30 05:48:42;;;;;;;1.00;1.00;;;;;;;;;;5021780;28;20253;-54
2022/09/30 05:51:08;;;;;;;1.20;1.20;;;;;;;;;;5015437;28;20240;-53
2022/09/30 05:53:37;;;;;;;1.13;1.13;;;;;;;;;;5036286;28;20248;-53
2022/09/30 05:56:03;;;;;;;0.90;0.90;;;;;;;;;;5030675;28;20261;-53
2022/09/30 05:58:30;;;;;;;0.93;0.93;;;;;;;;;;5029289;28;20223;-55
2022/09/30 06:00:55;;;;;;;0.90;0.90;;;;;;;;;;5017921;28;20654;-53
2022/09/30 06:03:21;;;;;;;0.90;0.90;;;;;;;;;;5032383;28;20235;-54
2022/09/30 06:05:47;;;;;;;0.80;0.80;;;;;;;;;;5021164;27;20301;-53
2022/09/30 06:08:14;;;;;;;0.80;0.80;;;;;;;;;;5009904;28;20220;-53
2022/09/30 06:10:40;;;;;;;0.93;0.93;;;;;;;;;;5025654;28;20760;-53
2022/09/30 06:13:07;;;;;;;0.90;0.90;;;;;;;;;;5022858;28;20830;-53
2022/09/30 06:15:36;;;;;;;1.00;1.00;;;;;;;;;;5017343;28;20354;-54
2022/09/30 06:18:02;;;;;;;1.00;1.00;;;;;;;;;;4997485;28;20232;-54
2022/09/30 06:20:29;;;;;;;1.00;1.00;;;;;;;;;;5015955;28;20223;-53
2022/09/30 06:22:55;;;;;;;0.93;0.93;;;;;;;;;;5020923;28;20232;-55
2022/09/30 06:25:21;;;;;;;1.00;1.00;;;;;;;;;;5015560;28;20234;-53
2022/09/30 06:27:47;;;;;;;0.93;0.93;;;;;;;;;;5010261;28;20328;-53
2022/09/30 06:30:13;;;;;;;0.87;0.87;;;;;;;;;;5007356;28;20263;-54
2022/09/30 06:32:39;;;;;;;0.90;0.90;;;;;;;;;;5026484;28;22184;-53
2022/09/30 06:35:05;;;;;;;0.90;0.90;;;;;;;;;;5040248;28;20251;-54
2022/09/30 06:37:31;;;;;;;0.80;0.80;;;;;;;;;;5019388;28;20237;-53
2022/09/30 06:39:57;;;;;;;1.00;1.00;;;;;;;;;;5024818;28;20639;-55
2022/09/30 06:42:23;;;;;;;0.87;0.87;;;;;;;;;;5012980;28;20228;-54
2022/09/30 06:44:50;;;;;;;0.90;0.90;;;;;;;;;;5019367;28;20223;-53
2022/09/30 06:47:16;;;;;;;0.80;0.80;;;;;;;;;;5015328;28;20263;-53
2022/09/30 06:49:42;;;;;;;0.77;0.77;;;;;;;;;;5014167;28;20240;-53
2022/09/30 06:52:11;;;;;;;0.80;0.80;;;;;;;;;;5024356;28;20390;-54
2022/09/30 06:54:38;;;;;;;0.90;0.90;;;;;;;;;;5018394;28;20228;-54
2022/09/30 06:57:04;;;;;;;0.90;0.90;;;;;;;;;;5030470;28;20238;-53
2022/09/30 06:59:29;;;;;;;0.90;0.90;;;;;;;;;;5030102;28;20249;-54
2022/09/30 07:01:55;;;;;;;0.80;0.80;;;;;;;;;;5022040;28;20866;-54
2022/09/30 07:04:22;;;;;;;0.90;0.90;;;;;;;;;;5021602;28;20246;-54
2022/09/30 07:06:48;;;;;;;0.90;0.90;;;;;;;;;;5023806;28;20306;-53
2022/09/30 07:09:14;;;;;;;0.90;0.90;;;;;;;;;;5027480;28;20676;-53
2022/09/30 07:11:40;;;;;;;0.90;0.90;;;;;;;;;;5030590;28;20665;-54
2022/09/30 07:14:06;;;;;;;1.00;1.00;;;;;;;;;;5023296;28;20234;-53
2022/09/30 07:16:33;;;;;;;0.70;0.70;;;;;;;;;;5013325;28;20228;-55
2022/09/30 07:18:59;;;;;;;0.80;0.80;;;;;;;;;;5017249;28;20219;-53
2022/09/30 07:21:25;;;;;;;0.77;0.77;;;;;;;;;;5013428;28;20243;-54
2022/09/30 07:23:52;;;;;;;0.90;0.90;;;;;;;;;;5001118;28;20247;-53
2022/09/30 07:26:21;;;;;;;0.90;0.90;;;;;;;;;;4998315;28;20311;-54
2022/09/30 07:28:47;;;;;;;0.90;0.90;;;;;;;;;;5009065;28;20319;-53
2022/09/30 07:31:15;;;;;;;0.97;0.97;;;;;;;;;;5002128;28;20776;-53
2022/09/30 07:33:41;;;;;;;0.80;0.80;;;;;;;;;;5015280;28;20596;-54
2022/09/30 07:36:08;;;;;;;0.80;0.80;;;;;;;;;;5034166;28;20234;-53
2022/09/30 07:38:35;;;;;;;0.73;0.73;;;;;;;;;;5009831;28;21213;-54
2022/09/30 07:41:05;;;;;;;0.90;0.90;;;;;;;;;;4995390;28;20816;-53
2022/09/30 07:43:33;;;;;;;0.80;0.80;;;;;;;;;;4993930;28;20602;-55
2022/09/30 07:46:04;;;;;;;0.80;0.80;;;;;;;;;;4999857;28;20224;-54
2022/09/30 07:48:43;;;;;;;0.90;0.90;;;;;;;;;;5000396;28;26060;-55
2022/09/30 07:51:12;;;;;;;0.70;0.70;;;;;;;;;;5016557;28;20582;-54
2022/09/30 07:53:38;;;;;;;0.70;0.70;;;;;;;;;;5008228;28;20723;-55
2022/09/30 07:56:05;;;;;;;1.10;1.10;;;;;;;;;;5007435;28;20668;-54
2022/09/30 07:58:31;;;;;;;1.00;1.00;;;;;;;;;;5001418;28;20222;-54
2022/09/30 08:00:57;;;;;;;1.20;1.20;;;;;;;;;;5019025;28;20704;-55
2022/09/30 08:03:22;;;;;;;0.90;0.90;;;;;;;;;;4999245;28;20239;-53
2022/09/30 08:05:48;;;;;;;1.00;1.00;;;;;;;;;;4995676;28;20880;-54
2022/09/30 08:08:15;;;;;;;0.90;0.90;;;;;;;;;;5004108;28;20246;-54
2022/09/30 08:10:41;;;;;;;0.70;0.70;;;;;;;;;;5004796;28;20294;-54
2022/09/30 08:13:07;;;;;;;0.80;0.80;;;;;;;;;;4990189;28;20251;-54
2022/09/30 08:15:33;;;;;;;0.90;0.90;;;;;;;;;;4975750;28;20280;-54
2022/09/30 08:17:59;;;;;;;0.90;0.90;;;;;;;;;;5010427;28;20225;-55
2022/09/30 08:20:25;;;;;;;0.97;0.97;;;;;;;;;;5010130;28;20240;-55
2022/09/30 08:22:54;;;;;;;0.80;0.80;;;;;;;;;;5012066;28;20619;-54
2022/09/30 08:25:21;;;;;;;1.03;1.03;;;;;;;;;;5002887;28;21184;-54
2022/09/30 08:27:47;;;;;;;1.00;1.00;;;;;;;;;;4992792;28;20226;-54
2022/09/30 08:30:13;;;;;;;0.70;0.70;;;;;;;;;;4999616;28;20236;-53
2022/09/30 08:32:39;;;;;;;0.70;0.70;;;;;;;;;;5014907;28;20227;-54
2022/09/30 08:35:05;;;;;;;0.90;0.90;;;;;;;;;;4980622;28;20474;-54
2022/09/30 08:37:31;;;;;;;0.70;0.70;;;;;;;;;;5004665;28;20699;-54
2022/09/30 08:39:57;;;;;;;1.10;1.10;;;;;;;;;;5014364;28;20309;-53
2022/09/30 08:42:38;;;;;;;0.80;0.80;;;;;;;;;;5031427;28;20240;-54
2022/09/30 08:45:09;;;;;;;0.97;0.97;;;;;;;;;;5034212;28;20233;-56
2022/09/30 08:47:35;;;;;;;0.70;0.70;;;;;;;;;;5007977;28;20527;-53
2022/09/30 08:50:15;;;;;;;0.70;0.70;;;;;;;;;;5011621;28;20725;-55
2022/09/30 08:52:50;;;;;;;0.90;0.90;;;;;;;;;;5005321;28;21643;-54
2022/09/30 08:55:20;;;;;;;0.70;0.70;;;;;;;;;;5013422;28;20272;-54
2022/09/30 08:57:46;;;;;;;0.70;0.70;;;;;;;;;;5013993;28;20238;-55
2022/09/30 09:00:14;;;;;;;0.70;0.70;;;;;;;;;;5006294;28;20233;-53
2022/09/30 09:02:52;;;;;;;0.67;0.67;;;;;;;;;;5014312;28;20322;-55
2022/09/30 09:05:31;;;;;;;0.70;0.70;;;;;;;;;;5031386;28;27039;-54
2022/09/30 09:07:57;;;;;;;1.00;1.00;;;;;;;;;;5020519;28;20775;-54
2022/09/30 09:10:27;;;;;;;1.00;1.00;;;;;;;;;;5043153;28;20218;-54
2022/09/30 09:12:58;;;;;;;1.20;1.20;;;;;;;;;;5023168;28;20589;-55
2022/09/30 09:15:43;;;;;;;1.60;1.60;;;;;;;;;;5028799;28;20750;-54
2022/09/30 09:18:28;;;;;;;1.37;1.37;;;;;;;;;;5025364;28;20753;-54
2022/09/30 09:20:57;;;;;;;1.10;1.10;;;;;;;;;;5025047;28;20220;-53
2022/09/30 09:23:23;;;;;;;0.80;0.80;;;;;;;;;;5019703;28;20240;-54
2022/09/30 09:25:51;;;;;;;0.80;0.80;;;;;;;;;;5038968;28;20319;-54
2022/09/30 09:28:34;;;;;;;1.10;1.10;;;;;;;;;;5003609;28;20610;-53
2022/09/30 09:31:00;;;;;;;1.38;1.38;;;;;;;;;;5022044;28;20215;-55
2022/09/30 09:33:30;;;;;;;0.88;0.88;;;;;;;;;;5030260;28;20255;-53
2022/09/30 09:36:01;;;;;;;0.90;0.90;;;;;;;;;;5026059;28;20312;-54
2022/09/30 09:38:34;;;;;;;0.80;0.80;;;;;;;;;;4983947;28;20303;-54
2022/09/30 09:41:10;;;;;;;0.88;0.88;;;;;;;;;;5014221;28;20236;-55
2022/09/30 09:43:35;;;;;;;0.80;0.80;;;;;;;;;;5008165;28;20235;-55
2022/09/30 09:46:08;;;;;;;0.77;0.77;;;;;;;;;;5010448;28;20556;-55
2022/09/30 09:48:34;;;;;;;0.70;0.70;;;;;;;;;;5024075;28;20698;-56
2022/09/30 09:51:11;;;;;;;0.80;0.80;;;;;;;;;;5000547;28;20226;-54
2022/09/30 09:53:39;;;;;;;0.80;0.80;;;;;;;;;;5023181;28;20801;-54
2022/09/30 09:56:16;;;;;;;0.88;0.88;;;;;;;;;;4999212;28;20221;-54
2022/09/30 09:58:44;;;;;;;0.70;0.70;;;;;;;;;;5016665;28;20257;-55
2022/09/30 10:01:22;;;;;;;0.80;0.80;;;;;;;;;;4993150;28;20225;-54
2022/09/30 10:03:48;;;;;;;0.80;0.80;;;;;;;;;;5012909;28;20323;-54
2022/09/30 10:06:14;;;;;;;0.85;0.85;;;;;;;;;;5008789;28;20783;-55
2022/09/30 10:08:52;;;;;;;0.80;0.80;;;;;;;;;;5013307;28;20216;-54
2022/09/30 10:11:20;;;;;;;0.80;0.80;;;;;;;;;;5002801;28;20226;-53
2022/09/30 10:13:46;;;;;;;0.75;0.75;;;;;;;;;;5026685;28;20313;-54
2022/09/30 10:16:31;;;;;;;0.80;0.80;;;;;;;;;;4994045;28;20247;-54
2022/09/30 10:18:57;;;;;;;0.80;0.80;;;;;;;;;;5006688;28;20214;-56
2022/09/30 10:21:23;;;;;;;0.77;0.77;;;;;;;;;;5015600;28;20312;-54
2022/09/30 10:23:49;;;;;;;0.70;0.70;;;;;;;;;;5013273;28;20267;-54
2022/09/30 10:26:17;;;;;;;0.70;0.70;;;;;;;;;;5015061;28;20216;-54
2022/09/30 10:28:52;;;;;;;0.70;0.70;;;;;;;;;;5012628;28;20559;-54
2022/09/30 10:31:21;;;;;;;0.70;0.70;;;;;;;;;;5006036;28;20275;-54
2022/09/30 10:33:48;;;;;;;0.70;0.70;;;;;;;;;;5008082;28;20323;-54
2022/09/30 10:36:14;;;;;;;0.80;0.80;;;;;;;;;;5004948;28;20224;-53
2022/09/30 10:38:59;;;;;;;0.80;0.80;;;;;;;;;;5005963;28;20737;-53
2022/09/30 10:41:26;;;;;;;0.90;0.90;;;;;;;;;;5018197;28;20228;-56
2022/09/30 10:43:53;;;;;;;0.98;0.98;;;;;;;;;;5005658;28;20239;-54
2022/09/30 10:46:23;;;;;;;0.80;0.80;;;;;;;;;;5024643;28;20260;-53
2022/09/30 10:48:49;;;;;;;1.00;1.00;;;;;;;;;;5013113;28;20220;-54
2022/09/30 10:51:20;;;;;;;1.10;1.10;;;;;;;;;;5015949;28;20661;-53
2022/09/30 10:53:46;;;;;;;1.15;1.15;;;;;;;;;;5014989;28;20364;-55
2022/09/30 10:56:12;;;;;;;1.10;1.10;;;;;;;;;;5027355;28;20233;-56
2022/09/30 10:58:48;;;;;;;1.13;1.13;;;;;;;;;;5001941;28;24594;-55
2022/09/30 11:01:16;;;;;;;1.20;1.20;;;;;;;;;;5018528;28;20224;-55
2022/09/30 11:03:48;;;;;;;1.30;1.30;;;;;;;;;;5008932;28;20244;-55
2022/09/30 11:06:14;;;;;;;1.20;1.20;;;;;;;;;;5002769;28;20233;-54
2022/09/30 11:08:57;;;;;;;1.23;1.23;;;;;;;;;;5033725;28;20260;-56
2022/09/30 11:11:26;;;;;;;1.30;1.30;;;;;;;;;;5007980;28;20227;-54
2022/09/30 11:13:53;;;;;;;1.30;1.30;;;;;;;;;;5016012;28;20329;-53
2022/09/30 11:16:21;;;;;;;1.40;1.40;;;;;;;;;;5029828;28;20649;-54
2022/09/30 11:18:47;;;;;;;1.50;1.50;;;;;;;;;;5031668;28;20285;-53
2022/09/30 11:21:27;;;;;;;1.30;1.30;;;;;;;;;;5022653;28;20224;-53
2022/09/30 11:23:58;;;;;;;1.40;1.40;;;;;;;;;;4972053;28;20244;-54
2022/09/30 11:26:24;;;;;;;1.40;1.40;;;;;;;;;;4988811;28;20233;-57
2022/09/30 11:28:56;;;;;;;1.20;1.20;;;;;;;;;;5014388;28;20275;-57
2022/09/30 11:31:36;;;;;;;1.20;1.20;;;;;;;;;;5012650;28;20246;-56
2022/09/30 11:34:08;;;;;;;1.20;1.20;;;;;;;;;;5022130;28;20747;-56
2022/09/30 11:36:47;;;;;;;1.17;1.17;;;;;;;;;;5018548;28;20236;-55
2022/09/30 11:39:26;;;;;;;1.10;1.10;;;;;;;;;;4995575;28;20236;-57
2022/09/30 11:41:57;;;;;;;1.10;1.10;;;;;;;;;;5008244;28;20382;-56
2022/09/30 11:44:26;;;;;;;1.17;1.17;;;;;;;;;;5009830;28;20263;-55
2022/09/30 11:46:52;;;;;;;1.10;1.10;;;;;;;;;;5025116;28;20316;-57
2022/09/30 11:49:27;;;;;;;1.20;1.20;;;;;;;;;;4991759;28;20258;-56
2022/09/30 11:52:01;;;;;;;1.25;1.25;;;;;;;;;;5005922;28;25245;-56
2022/09/30 11:54:27;;;;;;;1.20;1.20;;;;;;;;;;5009039;28;20306;-56
2022/09/30 11:57:09;;;;;;;1.20;1.20;;;;;;;;;;5015582;28;20231;-57
2022/09/30 11:59:37;;;;;;;1.20;1.20;;;;;;;;;;4983439;28;20226;-58
2022/09/30 12:02:04;;;;;;;1.20;1.20;;;;;;;;;;4992970;28;20236;-56
2022/09/30 12:04:37;;;;;;;1.27;1.27;;;;;;;;;;4998526;28;20587;-58
2022/09/30 12:07:08;;;;;;;1.20;1.20;;;;;;;;;;5006942;28;20246;-56
2022/09/30 12:09:36;;;;;;;1.27;1.27;;;;;;;;;;4986491;28;20233;-57
2022/09/30 12:12:06;;;;;;;1.20;1.20;;;;;;;;;;5024493;28;20224;-56
2022/09/30 12:14:39;;;;;;;1.30;1.30;;;;;;;;;;4999959;28;20229;-58
2022/09/30 12:17:06;;;;;;;1.40;1.40;;;;;;;;;;5007504;28;20231;-57
2022/09/30 12:19:43;;;;;;;1.33;1.33;;;;;;;;;;4980702;28;20243;-55
2022/09/30 12:22:11;;;;;;;1.10;1.10;;;;;;;;;;5017604;28;20223;-56
2022/09/30 12:24:38;;;;;;;1.10;1.10;;;;;;;;;;5024288;28;20317;-57
2022/09/30 12:27:06;;;;;;;1.23;1.23;;;;;;;;;;5016203;28;20235;-56
2022/09/30 12:32:30;;;;;;;1.20;1.20;;;;;;;;;;5006026;28;20240;-58
2022/09/30 12:35:16;;;;;;;1.35;1.35;;;;;;;;;;4985254;28;20692;-55
2022/09/30 12:47:44;;;;;;;1.30;1.30;;;;;;;;;;4991811;28;20451;-56
2022/09/30 12:50:16;;;;;;;1.30;1.30;;;;;;;;;;4996528;28;20229;-56
2022/09/30 12:52:47;;;;;;;1.38;1.38;;;;;;;;;;5019812;28;20255;-57
2022/09/30 12:55:36;;;;;;;1.30;1.30;;;;;;;;;;4995672;28;20231;-56
2022/09/30 12:58:16;;;;;;;1.40;1.40;;;;;;;;;;5017763;28;21557;-56
2022/09/30 13:00:43;;;;;;;1.50;1.50;;;;;;;;;;4977184;28;20393;-56
2022/09/30 13:03:18;;;;;;;1.60;1.60;;;;;;;;;;4977423;28;20906;-56
2022/09/30 13:05:51;;;;;;;1.70;1.70;;;;;;;;;;4977463;28;20227;-55
2022/09/30 13:08:24;;;;;;;1.70;1.70;;;;;;;;;;4998161;28;20686;-54
2022/09/30 13:10:58;;;;;;;1.50;1.50;;;;;;;;;;5002751;28;20239;-54
2022/09/30 13:13:25;;;;;;;1.52;1.52;;;;;;;;;;4987587;28;20224;-53
2022/09/30 13:15:51;;;;;;;1.50;1.50;;;;;;;;;;4993239;28;20294;-56
2022/09/30 13:18:26;;;;;;;1.40;1.40;;;;;;;;;;4957693;28;20395;-55
2022/09/30 13:20:55;;;;;;;1.40;1.40;;;;;;;;;;4989882;28;20254;-56
2022/09/30 13:23:37;;;;;;;1.50;1.50;;;;;;;;;;5003447;28;20220;-53
2022/09/30 13:26:23;;;;;;;1.40;1.40;;;;;;;;;;4987318;28;21240;-54
2022/09/30 13:28:52;;;;;;;1.40;1.40;;;;;;;;;;4983878;28;20505;-56
2022/09/30 13:31:24;;;;;;;1.40;1.40;;;;;;;;;;4995670;28;20688;-54
2022/09/30 13:34:02;;;;;;;1.30;1.30;;;;;;;;;;4968691;28;20317;-55
2022/09/30 13:36:32;;;;;;;1.40;1.40;;;;;;;;;;4990495;28;20949;-55
2022/09/30 13:39:17;;;;;;;1.55;1.55;;;;;;;;;;4994473;28;20291;-54
2022/09/30 13:42:02;;;;;;;1.40;1.40;;;;;;;;;;4979172;28;20255;-54
2022/09/30 13:44:46;;;;;;;1.50;1.50;;;;;;;;;;4989490;28;20236;-54
2022/09/30 13:47:26;;;;;;;1.30;1.30;;;;;;;;;;4976304;28;20691;-56
2022/09/30 13:49:54;;;;;;;1.30;1.30;;;;;;;;;;4973696;28;20368;-56
2022/09/30 13:52:31;;;;;;;1.42;1.42;;;;;;;;;;4981757;28;20592;-55
2022/09/30 13:54:58;;;;;;;1.30;1.30;;;;;;;;;;4991176;28;20319;-56
2022/09/30 13:57:28;;;;;;;1.42;1.42;;;;;;;;;;4999765;28;20609;-56
2022/09/30 14:00:08;;;;;;;1.30;1.30;;;;;;;;;;4990222;28;20271;-55
2022/09/30 14:02:40;;;;;;;1.40;1.40;;;;;;;;;;5011691;28;20266;-55
2022/09/30 14:05:06;;;;;;;1.40;1.40;;;;;;;;;;5002503;28;20235;-55
2022/09/30 14:07:36;;;;;;;1.50;1.50;;;;;;;;;;5002345;28;20224;-54
2022/09/30 14:10:09;;;;;;;1.40;1.40;;;;;;;;;;5007445;28;20230;-56
2022/09/30 14:12:38;;;;;;;1.40;1.40;;;;;;;;;;4999471;28;20230;-56
2022/09/30 14:15:23;;;;;;;1.50;1.50;;;;;;;;;;5008182;28;20231;-56
2022/09/30 14:17:59;;;;;;;1.50;1.50;;;;;;;;;;4993897;28;20313;-55
2022/09/30 14:20:25;;;;;;;1.20;1.20;;;;;;;;;;4985370;28;20232;-55
2022/09/30 14:22:52;;;;;;;1.20;1.20;;;;;;;;;;5012982;28;20232;-53
2022/09/30 14:25:18;;;;;;;1.30;1.30;;;;;;;;;;4999542;28;20327;-53
2022/09/30 14:28:03;;;;;;;1.30;1.30;;;;;;;;;;5008263;28;20231;-55
2022/09/30 14:30:29;;;;;;;1.80;1.70;;;;;;;;;;4985332;28;20230;-53
2022/09/30 14:32:59;;;;;;;1.80;1.70;;;;;;;;;;4997173;28;20704;-53
2022/09/30 14:35:28;;;;;;;1.70;1.70;;;;;;;;;;4973329;28;20225;-52
2022/09/30 14:38:01;;;;;;;1.80;1.70;;;;;;;;;;5019862;28;20225;-53
2022/09/30 14:40:31;;;;;;;1.70;1.70;;;;;;;;;;5006018;28;20255;-53
2022/09/30 14:43:01;;;;;;;1.70;1.70;;;;;;;;;;5005158;28;21255;-53
2022/09/30 14:45:28;;;;;;;1.88;1.77;;;;;;;;;;4999221;28;20216;-53
2022/09/30 14:48:00;;;;;;;1.90;1.80;;;;;;;;;;5003931;28;20621;-56
2022/09/30 14:50:27;;;;;;;1.60;1.60;;;;;;;;;;4990841;28;20231;-55
2022/09/30 14:52:57;;;;;;;1.90;1.80;;;;;;;;;;5016765;28;20220;-54
2022/09/30 14:55:25;;;;;;;2.00;1.90;;;;;;;;;;5004569;28;20235;-54
2022/09/30 14:57:53;;;;;;;1.77;1.70;;;;;;;;;;4980942;28;20613;-52
2022/09/30 15:00:31;;;;;;;1.90;1.80;;;;;;;;;;4994281;28;20310;-53
2022/09/30 15:02:58;;;;;;;1.95;1.85;;;;;;;;;;4992300;28;20314;-56
2022/09/30 15:05:24;;;;;;;1.80;1.70;;;;;;;;;;4987047;28;20219;-54
2022/09/30 15:07:50;;;;;;;1.60;1.60;;;;;;;;;;5008762;28;20228;-54
2022/09/30 15:10:17;;;;;;;2.00;1.90;;;;;;;;;;4991647;28;20767;-53